Time;durP1;ratioP1;P1;durP2;ratioP2;P2;SDS_P1;SDS_P2;PMS_P1;PMS_P2;Temp;Humidity;BMP_temperature;BMP_pressure;BME280_temperature;BME280_humidity;BME280_pressure;Samples;Min_cycle;Max_cycle;Signal;HPM_P1;HPM_P2
2023/06/09 00:01:58;;;;;;;17.85;10.40;;;;;;;22.83;45.60;99329.13;4998111;28;20052;-67
2023/06/09 00:04:29;;;;;;;16.92;9.57;;;;;;;22.64;46.03;99322.28;4998696;28;20056;-67
2023/06/09 00:06:55;;;;;;;15.40;8.40;;;;;;;22.71;46.22;99334.59;5014326;28;20508;-67
2023/06/09 00:09:21;;;;;;;22.70;9.80;;;;;;;22.45;46.71;99323.53;4981173;28;20045;-66
2023/06/09 00:11:48;;;;;;;17.05;8.40;;;;;;;22.52;46.75;99324.22;5066322;28;20103;-66
2023/06/09 00:14:14;;;;;;;15.00;8.02;;;;;;;22.41;46.70;99325.88;5021599;28;20044;-66
2023/06/09 00:16:45;;;;;;;18.02;8.82;;;;;;;22.54;46.60;99331.00;5054434;28;20047;-67
2023/06/09 00:19:11;;;;;;;;;;;;;;;23.00;46.21;99319.94;5038918;28;20469;-67
2023/06/09 00:21:37;;;;;;;11.32;6.22;;;;;;;22.50;46.20;99318.19;5021211;28;19981;-66
2023/06/09 00:24:04;;;;;;;11.32;6.40;;;;;;;22.68;46.30;99315.31;5054209;28;20388;-67
2023/06/09 00:26:31;;;;;;;11.82;7.22;;;;;;;22.69;45.85;99319.66;5034527;28;20063;-66
2023/06/09 00:28:57;;;;;;;14.25;6.80;;;;;;;22.67;45.62;99319.06;5051060;28;20140;-67
2023/06/09 00:31:23;;;;;;;10.60;6.20;;;;;;;22.64;45.84;99314.97;5017897;28;20152;-66
2023/06/09 00:33:52;;;;;;;11.18;6.45;;;;;;;22.73;45.53;99313.50;5017802;28;20045;-66
2023/06/09 00:36:18;;;;;;;13.15;7.45;;;;;;;22.77;45.19;99306.53;5050900;28;20119;-66
2023/06/09 00:38:44;;;;;;;9.23;6.25;;;;;;;22.62;45.84;99308.16;5050838;28;20053;-67
2023/06/09 00:41:10;;;;;;;13.57;6.32;;;;;;;22.98;45.35;99308.53;5001250;28;20055;-66
2023/06/09 00:43:36;;;;;;;9.82;5.50;;;;;;;22.91;44.82;99299.72;5033257;28;20123;-67
2023/06/09 00:46:07;;;;;;;12.50;5.78;;;;;;;23.19;45.09;99302.38;5018168;28;20156;-66
2023/06/09 00:48:36;;;;;;;9.13;5.30;;;;;;;23.01;44.75;99299.09;5034682;28;20060;-67
2023/06/09 00:51:02;;;;;;;14.80;5.20;;;;;;;23.04;44.59;99299.44;5034449;28;20140;-66
2023/06/09 00:53:29;;;;;;;10.55;5.10;;;;;;;23.09;44.42;99301.41;5067476;28;20060;-66
2023/06/09 00:55:54;;;;;;;14.40;5.28;;;;;;;23.01;44.24;99302.63;5067226;28;20469;-67
2023/06/09 00:58:21;;;;;;;10.70;5.20;;;;;;;23.19;44.03;99293.41;5034016;28;20047;-67
2023/06/09 01:00:47;;;;;;;8.50;5.32;;;;;;;23.02;44.43;99298.00;5017513;28;20049;-67
2023/06/09 01:03:13;;;;;;;8.55;5.13;;;;;;;23.04;44.46;99287.75;5050325;28;20052;-67
2023/06/09 01:05:44;;;;;;;8.55;5.15;;;;;;;23.07;44.22;99288.09;5050350;28;20424;-66
2023/06/09 01:08:32;;;;;;;7.32;4.65;;;;;;;23.52;43.95;99295.28;5050822;28;20106;-67
2023/06/09 01:11:05;;;;;;;11.27;4.72;;;;;;;23.32;44.39;99290.41;5067081;28;20053;-66
2023/06/09 01:13:40;;;;;;;6.55;4.65;;;;;;;23.41;44.28;99294.34;5033929;28;20041;-66
2023/06/09 01:16:11;;;;;;;5.68;4.20;;;;;;;23.51;43.93;99290.97;5033806;28;20144;-67
2023/06/09 01:18:42;;;;;;;5.63;4.43;;;;;;;23.33;43.83;99285.78;5000651;28;20053;-66
2023/06/09 01:21:20;;;;;;;9.68;4.75;;;;;;;23.46;43.51;99286.28;5050668;28;20150;-66
2023/06/09 01:24:09;;;;;;;8.50;4.78;;;;;;;23.67;43.34;99285.50;5030565;28;20485;-67
2023/06/09 01:26:38;;;;;;;9.77;4.65;;;;;;;23.49;42.70;99290.38;4997033;28;20059;-67
2023/06/09 01:29:05;;;;;;;6.03;4.53;;;;;;;23.71;42.50;99302.09;5030911;28;20062;-66
2023/06/09 01:31:31;;;;;;;10.43;5.00;;;;;;;23.66;42.50;99296.59;5014235;28;20136;-67
2023/06/09 01:33:58;;;;;;;8.60;5.72;;;;;;;23.70;42.13;99289.56;5014347;28;20063;-66
2023/06/09 01:36:24;;;;;;;13.30;8.52;;;;;;;23.68;42.01;99295.25;5030348;28;20119;-67
2023/06/09 01:38:50;;;;;;;14.52;7.40;;;;;;;23.58;42.25;99305.13;5014109;28;20119;-67
2023/06/09 01:41:16;;;;;;;8.55;6.18;;;;;;;23.58;42.16;99297.00;5030356;28;20416;-66
2023/06/09 01:43:42;;;;;;;10.50;6.82;;;;;;;23.54;42.35;99295.88;5030473;28;20045;-66
2023/06/09 01:46:08;;;;;;;9.13;6.35;;;;;;;23.41;42.66;99297.03;5030307;28;20428;-66
2023/06/09 01:48:56;;;;;;;7.78;5.90;;;;;;;24.03;41.76;99293.03;5046905;28;20183;-67
2023/06/09 01:51:27;;;;;;;9.65;5.53;;;;;;;23.92;41.95;99291.25;5030133;28;20077;-67
2023/06/09 01:53:57;;;;;;;10.63;5.65;;;;;;;23.97;41.67;99293.25;5015188;28;20064;-67
2023/06/09 01:56:31;;;;;;;6.30;5.07;;;;;;;23.81;42.62;99288.66;5033947;28;20138;-66
2023/06/09 01:59:01;;;;;;;10.38;5.30;;;;;;;23.85;42.32;99289.81;5033766;28;20089;-66
2023/06/09 02:01:31;;;;;;;8.40;5.00;;;;;;;23.76;42.00;99292.13;5033685;28;20068;-67
2023/06/09 02:03:58;;;;;;;7.63;4.80;;;;;;;23.44;42.74;99287.59;5017292;28;20049;-67
2023/06/09 02:06:23;;;;;;;9.43;5.93;;;;;;;23.39;42.96;99285.63;5033628;28;20393;-67
2023/06/09 02:08:50;;;;;;;10.18;6.13;;;;;;;23.35;43.39;99286.38;5033443;28;20041;-67
2023/06/09 02:11:16;;;;;;;10.23;5.15;;;;;;;23.08;43.24;99292.44;5033367;28;20056;-67
2023/06/09 02:13:42;;;;;;;10.15;4.85;;;;;;;23.15;43.68;99282.28;5016984;28;20098;-67
2023/06/09 02:16:11;;;;;;;10.20;4.85;;;;;;;23.07;43.57;99277.25;5033380;28;20041;-67
2023/06/09 02:18:38;;;;;;;10.18;4.90;;;;;;;23.27;43.74;99276.78;5033722;28;20057;-67
2023/06/09 02:21:04;;;;;;;10.38;5.07;;;;;;;23.59;42.84;99279.69;5017326;28;20477;-66
2023/06/09 02:23:31;;;;;;;9.57;5.63;;;;;;;23.61;42.59;99282.94;5032014;28;20054;-67
2023/06/09 02:25:57;;;;;;;8.40;5.03;;;;;;;23.55;42.50;99282.06;4997102;28;20085;-67
2023/06/09 02:28:22;;;;;;;7.25;4.90;;;;;;;23.56;42.87;99283.69;4982863;28;20183;-66
2023/06/09 02:30:48;;;;;;;8.13;5.07;;;;;;;23.67;42.60;99288.19;4999519;28;20198;-66
2023/06/09 02:33:15;;;;;;;9.88;4.82;;;;;;;23.58;42.83;99278.03;4999257;28;20136;-67
2023/06/09 02:35:42;;;;;;;9.35;4.60;;;;;;;23.81;42.20;99280.50;5015675;28;20041;-66
2023/06/09 02:38:09;;;;;;;9.77;4.95;;;;;;;23.78;42.15;99278.31;5015718;28;20050;-67
2023/06/09 02:40:35;;;;;;;7.43;4.72;;;;;;;23.93;41.96;99281.19;4982936;28;20056;-67
2023/06/09 02:43:01;;;;;;;11.00;5.28;;;;;;;24.14;41.37;99275.78;4983009;28;20358;-67
2023/06/09 02:45:27;;;;;;;9.35;4.97;;;;;;;23.94;41.76;99280.16;5015343;28;20052;-67
2023/06/09 02:47:53;;;;;;;9.75;4.88;;;;;;;24.05;41.50;99269.19;5015212;28;20145;-67
2023/06/09 02:50:19;;;;;;;10.70;5.20;;;;;;;24.12;41.50;99269.81;5015144;28;20534;-67
2023/06/09 02:52:51;;;;;;;;;;;;;;;24.60;40.94;99282.53;4984477;28;20076;-67
2023/06/09 02:55:21;;;;;;;12.32;5.25;;;;;;;24.12;41.67;99272.53;5029224;28;20339;-67
2023/06/09 02:57:48;;;;;;;;;;;;;;;24.71;40.89;99289.72;5049155;28;20041;-67
2023/06/09 03:00:16;;;;;;;15.77;5.35;;;;;;;24.30;41.58;99283.03;5049168;28;20383;-67
2023/06/09 03:02:51;;;;;;;10.40;5.45;;;;;;;24.21;41.63;99278.31;4995184;28;20535;-66
2023/06/09 03:05:20;;;;;;;8.50;5.18;;;;;;;24.23;41.38;99278.91;4995332;28;20084;-67
2023/06/09 03:07:48;;;;;;;14.02;5.40;;;;;;;24.44;42.07;99276.13;4979431;28;20060;-67
2023/06/09 03:10:16;;;;;;;7.78;5.57;;;;;;;24.69;41.67;99281.81;4979238;28;20064;-67
2023/06/09 03:12:45;;;;;;;;;;;;;;;25.03;40.63;99282.41;4995904;28;20065;-66
2023/06/09 03:15:11;;;;;;;6.90;4.65;;;;;;;24.53;41.36;99282.75;4978975;28;20393;-67
2023/06/09 03:17:41;;;;;;;8.57;5.00;;;;;;;24.62;41.24;99291.22;4963420;28;20045;-67
2023/06/09 03:20:09;;;;;;;11.73;5.67;;;;;;;24.57;41.65;99283.84;4979435;28;20062;-67
2023/06/09 03:22:36;;;;;;;10.30;5.30;;;;;;;24.80;40.98;99288.19;5005477;28;20295;-67
2023/06/09 03:25:04;;;;;;;7.18;4.90;;;;;;;24.72;41.05;99291.38;4993340;28;20149;-67
2023/06/09 03:27:33;;;;;;;8.57;5.47;;;;;;;24.82;40.84;99286.84;4988551;28;20049;-67
2023/06/09 03:29:59;;;;;;;11.73;4.78;;;;;;;24.75;40.82;99288.97;4988992;28;20123;-67
2023/06/09 03:32:27;;;;;;;8.93;4.88;;;;;;;24.54;41.37;99289.81;5004115;28;20053;-67
2023/06/09 03:34:53;;;;;;;7.15;4.43;;;;;;;24.75;40.80;99286.25;5003861;28;20071;-67
2023/06/09 03:37:21;;;;;;;10.23;4.80;;;;;;;24.95;40.76;99291.03;4954944;28;20105;-67
2023/06/09 03:39:48;;;;;;;6.82;4.60;;;;;;;24.95;40.75;99290.22;4947011;28;20065;-66
2023/06/09 03:42:19;;;;;;;7.28;4.75;;;;;;;24.94;41.00;99286.66;4891197;29;20067;-66
2023/06/09 03:44:45;;;;;;;9.60;4.55;;;;;;;24.96;40.65;99289.13;4883258;29;20511;-67
2023/06/09 03:47:11;;;;;;;8.60;4.68;;;;;;;25.06;40.69;99287.34;4887976;29;20908;-66
2023/06/09 03:49:39;;;;;;;9.48;4.63;;;;;;;24.89;41.09;99281.22;4890168;29;20059;-68
2023/06/09 03:52:06;;;;;;;8.10;4.35;;;;;;;25.29;40.44;99286.13;4876722;29;20416;-68
2023/06/09 03:54:34;;;;;;;5.95;4.43;;;;;;;25.25;40.16;99291.25;4883589;29;20044;-68
2023/06/09 03:57:01;;;;;;;10.23;4.53;;;;;;;25.43;39.92;99293.59;4883748;29;20056;-67
2023/06/09 03:59:28;;;;;;;6.97;4.57;;;;;;;25.39;40.03;99291.66;4898850;29;20558;-69
2023/06/09 04:01:54;;;;;;;7.93;4.90;;;;;;;25.32;40.21;99297.31;4914390;29;20166;-68
2023/06/09 04:04:21;;;;;;;6.85;4.30;;;;;;;25.41;39.90;99295.78;4898517;29;20055;-68
2023/06/09 04:06:48;;;;;;;8.45;4.95;;;;;;;25.46;40.31;99292.25;4868312;29;20083;-67
2023/06/09 04:09:15;;;;;;;9.90;4.70;;;;;;;25.73;39.92;99309.28;4879788;29;20060;-67
2023/06/09 04:11:41;;;;;;;8.82;4.25;;;;;;;25.49;39.95;99302.63;4864661;29;20067;-67
2023/06/09 04:14:08;;;;;;;10.68;4.85;;;;;;;25.96;39.36;99301.53;4895890;29;20060;-67
2023/06/09 04:16:34;;;;;;;8.63;4.47;;;;;;;25.92;39.13;99314.03;4905926;29;20055;-68
2023/06/09 04:19:01;;;;;;;8.38;4.60;;;;;;;26.11;38.66;99317.94;4944158;29;20280;-67
2023/06/09 04:21:28;;;;;;;9.35;4.53;;;;;;;26.24;38.42;99314.75;4887098;29;20399;-67
2023/06/09 04:23:56;;;;;;;7.55;4.38;;;;;;;26.12;38.75;99311.41;4924121;28;20051;-67
2023/06/09 04:26:22;;;;;;;10.48;4.57;;;;;;;26.16;38.69;99303.53;4948995;28;20058;-68
2023/06/09 04:28:48;;;;;;;7.50;4.78;;;;;;;26.39;38.13;99313.94;4973214;28;20050;-67
2023/06/09 04:31:18;;;;;;;13.13;4.78;;;;;;;26.43;38.20;99312.34;4957656;28;20046;-67
2023/06/09 04:33:45;;;;;;;11.27;5.00;;;;;;;26.48;37.60;99315.88;4971590;28;20061;-67
2023/06/09 04:36:13;;;;;;;12.60;4.90;;;;;;;26.19;38.56;99314.72;4973455;28;20140;-67
2023/06/09 04:38:40;;;;;;;8.02;4.88;;;;;;;26.59;37.37;99321.34;4975245;28;20045;-67
2023/06/09 04:41:09;;;;;;;14.13;4.93;;;;;;;26.77;37.30;99307.25;4990482;28;20497;-67
2023/06/09 04:43:39;;;;;;;7.55;4.53;;;;;;;27.06;36.85;99322.81;5025783;28;20037;-67
2023/06/09 04:46:07;;;;;;;9.80;4.60;;;;;;;26.98;36.36;99328.00;5009996;28;20092;-67
2023/06/09 04:48:34;;;;;;;9.25;4.22;;;;;;;27.11;36.35;99319.28;4994662;28;20053;-67
2023/06/09 04:51:01;;;;;;;9.32;4.90;;;;;;;26.96;36.49;99320.09;5011475;28;20048;-67
2023/06/09 04:53:29;;;;;;;7.60;4.65;;;;;;;27.39;35.92;99332.38;4978721;28;20401;-67
2023/06/09 04:55:56;;;;;;;11.95;4.43;;;;;;;27.43;35.79;99312.47;4995144;28;20061;-67
2023/06/09 04:58:25;;;;;;;18.27;4.93;;;;;;;27.59;34.76;99318.72;4995463;28;20046;-67
2023/06/09 05:00:53;;;;;;;11.32;4.47;;;;;;;27.69;34.96;99321.44;5011690;28;20046;-67
2023/06/09 05:03:19;;;;;;;10.70;4.60;;;;;;;27.89;34.81;99318.69;4978574;28;20136;-67
2023/06/09 05:05:46;;;;;;;11.98;5.32;;;;;;;28.06;34.42;99312.88;5011421;28;20048;-67
2023/06/09 05:08:13;;;;;;;11.77;4.75;;;;;;;28.23;34.60;99316.88;5011357;28;20053;-67
2023/06/09 05:10:40;;;;;;;10.43;4.63;;;;;;;28.10;34.64;99309.31;4995025;28;20049;-67
2023/06/09 05:13:08;;;;;;;7.45;4.38;;;;;;;28.34;33.80;99328.59;5010901;28;20599;-67
2023/06/09 05:15:35;;;;;;;9.95;4.50;;;;;;;28.24;33.55;99321.28;5011303;28;20560;-67
2023/06/09 05:18:01;;;;;;;8.50;4.32;;;;;;;28.07;33.82;99319.97;5011186;28;20123;-67
2023/06/09 05:20:28;;;;;;;7.30;4.40;;;;;;;28.54;33.82;99312.13;4994536;28;20141;-67
2023/06/09 05:22:54;;;;;;;6.32;4.32;;;;;;;28.44;33.56;99309.41;5011054;28;20148;-67
2023/06/09 05:25:20;;;;;;;11.52;4.28;;;;;;;28.51;33.40;99308.03;4999092;28;20147;-67
2023/06/09 05:27:47;;;;;;;6.45;4.07;;;;;;;28.62;33.33;99308.78;5046252;28;20054;-67
2023/06/09 05:30:14;;;;;;;7.78;4.45;;;;;;;28.95;32.47;99308.84;5049509;28;20462;-67
2023/06/09 05:32:40;;;;;;;10.77;4.78;;;;;;;29.08;32.25;99304.66;5049914;28;20068;-67
2023/06/09 05:35:08;;;;;;;9.02;4.53;;;;;;;29.20;32.40;99307.84;5000833;28;20097;-67
2023/06/09 05:37:40;;;;;;;10.65;4.28;;;;;;;29.59;31.98;99300.34;5016912;28;20041;-67
2023/06/09 05:40:07;;;;;;;14.25;4.72;;;;;;;29.57;31.87;99306.13;5000662;28;20127;-67
2023/06/09 05:42:33;;;;;;;16.92;4.50;;;;;;;29.46;31.63;99312.78;5033289;28;20077;-67
2023/06/09 05:44:58;;;;;;;10.43;4.53;;;;;;;29.66;31.22;99308.25;5049846;28;20445;-67
2023/06/09 05:47:24;;;;;;;8.13;4.43;;;;;;;29.40;31.68;99319.41;5016602;28;20397;-67
2023/06/09 05:49:50;;;;;;;10.38;4.35;;;;;;;29.52;31.42;99324.53;5016508;28;20362;-68
2023/06/09 05:52:16;;;;;;;7.47;4.32;;;;;;;29.71;31.25;99319.16;5033409;28;20045;-67
2023/06/09 05:54:42;;;;;;;8.57;3.90;;;;;;;29.80;31.12;99317.41;5016678;28;20042;-67
2023/06/09 05:57:09;;;;;;;11.60;4.63;;;;;;;29.94;30.75;99310.94;5016639;28;20476;-67
2023/06/09 05:59:35;;;;;;;13.20;4.70;;;;;;;30.16;30.41;99313.13;5020853;28;20142;-67
2023/06/09 06:02:01;;;;;;;9.68;4.13;;;;;;;30.32;30.26;99309.13;5037180;28;20551;-67
2023/06/09 06:04:27;;;;;;;9.45;4.18;;;;;;;30.47;29.87;99309.75;5037052;28;20202;-67
2023/06/09 06:06:53;;;;;;;10.60;4.47;;;;;;;30.59;30.04;99310.13;5037287;28;20057;-67
2023/06/09 06:09:21;;;;;;;8.90;4.30;;;;;;;30.85;29.62;99307.84;5036684;28;20048;-67
2023/06/09 06:11:48;;;;;;;7.47;4.28;;;;;;;30.98;27.11;99313.38;5037537;28;20037;-68
2023/06/09 06:14:13;;;;;;;11.55;3.72;;;;;;;30.78;27.13;99305.47;5053591;28;20045;-67
2023/06/09 06:16:39;;;;;;;8.07;4.13;;;;;;;30.91;26.78;99306.63;5004165;28;20041;-67
2023/06/09 06:19:06;;;;;;;9.20;4.07;;;;;;;30.84;26.05;99312.53;5020479;28;20056;-67
2023/06/09 06:21:31;;;;;;;8.52;3.95;;;;;;;31.31;25.65;99322.47;5020400;28;20495;-67
2023/06/09 06:23:57;;;;;;;13.07;4.20;;;;;;;31.42;24.93;99301.97;5020382;28;20040;-67
2023/06/09 06:26:23;;;;;;;7.28;3.95;;;;;;;31.55;24.96;99308.59;5036363;28;20114;-67
2023/06/09 06:28:49;;;;;;;9.95;4.15;;;;;;;31.56;25.10;99308.31;5036910;28;20049;-67
2023/06/09 06:31:21;;;;;;;8.02;4.00;;;;;;;32.03;23.79;99307.16;5053315;28;20044;-67
2023/06/09 06:33:52;;;;;;;5.78;3.53;;;;;;;31.61;23.73;99312.88;5037104;28;20056;-67
2023/06/09 06:36:21;;;;;;;9.88;3.92;;;;;;;31.80;23.38;99303.44;5036758;28;20053;-68
2023/06/09 06:38:48;;;;;;;8.60;3.78;;;;;;;31.98;22.90;99310.81;5020725;28;20059;-68
2023/06/09 06:41:14;;;;;;;10.95;3.88;;;;;;;32.04;23.02;99298.63;5035584;28;20040;-67
2023/06/09 06:43:44;;;;;;;9.65;4.10;;;;;;;32.57;23.10;99307.91;5036388;28;20052;-67
2023/06/09 06:46:11;;;;;;;11.57;3.92;;;;;;;32.37;22.86;99313.88;5036535;28;20049;-68
2023/06/09 06:48:38;;;;;;;8.90;3.88;;;;;;;32.64;22.82;99302.78;5003192;28;20044;-67
2023/06/09 06:51:07;;;;;;;7.68;3.67;;;;;;;32.93;22.10;99305.19;5019659;28;20037;-68
2023/06/09 06:53:35;;;;;;;7.72;3.92;;;;;;;33.11;22.37;99303.34;5019525;28;20481;-67
2023/06/09 06:56:01;;;;;;;8.05;3.65;;;;;;;33.09;22.56;99297.38;5036159;28;20531;-67
2023/06/09 06:58:28;;;;;;;12.13;4.30;;;;;;;33.23;21.61;99303.63;5003197;28;20060;-67
2023/06/09 07:00:55;;;;;;;7.22;3.50;;;;;;;33.46;22.00;99303.31;5019678;28;20048;-68
2023/06/09 07:03:26;;;;;;;11.35;3.80;;;;;;;33.43;20.36;99294.88;5019811;28;20071;-67
2023/06/09 07:05:53;;;;;;;5.43;3.58;;;;;;;33.56;21.19;99288.44;5036858;28;20045;-67
2023/06/09 07:08:19;;;;;;;11.82;4.22;;;;;;;33.49;21.07;99301.88;5019455;28;20049;-67
2023/06/09 07:10:49;;;;;;;7.72;3.67;;;;;;;33.75;20.98;99297.31;5002931;28;20365;-67
2023/06/09 07:13:16;;;;;;;8.80;3.70;;;;;;;33.88;21.03;99293.63;5031244;28;20053;-67
2023/06/09 07:15:42;;;;;;;7.13;3.72;;;;;;;34.11;20.51;99296.00;5000980;28;20072;-67
2023/06/09 07:18:08;;;;;;;9.18;3.67;;;;;;;34.30;19.97;99297.66;5007617;28;20052;-67
2023/06/09 07:20:35;;;;;;;9.23;4.20;;;;;;;34.33;18.57;99303.34;5013699;28;20169;-66
2023/06/09 07:23:02;;;;;;;5.70;3.70;;;;;;;34.66;18.58;99299.03;4996383;28;20049;-67
2023/06/09 07:25:28;;;;;;;7.75;3.67;;;;;;;35.12;18.00;99298.41;4980474;28;20057;-66
2023/06/09 07:27:54;;;;;;;8.27;3.50;;;;;;;35.32;17.49;99293.00;5013562;28;20096;-67
2023/06/09 07:30:21;;;;;;;10.88;4.10;;;;;;;35.78;17.17;99297.78;4997314;28;20042;-68
2023/06/09 07:32:47;;;;;;;8.52;3.42;;;;;;;36.12;15.89;99292.09;5013430;28;20049;-68
2023/06/09 07:35:13;;;;;;;5.97;3.63;;;;;;;37.11;14.85;99289.28;5030091;28;20128;-69
2023/06/09 07:37:42;;;;;;;4.15;2.80;;;;;;;38.48;14.01;99295.97;4996815;28;20083;-70
2023/06/09 07:40:09;;;;;;;10.45;3.08;;;;;;;38.98;12.98;99298.31;4981423;28;20041;-69
2023/06/09 07:42:39;;;;;;;9.32;2.97;;;;;;;40.42;12.26;99291.03;4997753;28;20041;-67
2023/06/09 07:45:05;;;;;;;11.93;3.38;;;;;;;41.73;11.48;99285.81;5032204;28;20139;-67
2023/06/09 07:47:33;;;;;;;4.95;3.03;;;;;;;42.01;9.79;99285.50;5070349;28;20037;-67
2023/06/09 07:49:59;;;;;;;8.40;2.60;;;;;;;42.60;8.77;99282.03;5037237;28;20123;-68
2023/06/09 07:52:25;;;;;;;8.23;2.75;;;;;;;44.22;8.14;99273.41;5053661;28;20408;-68
2023/06/09 07:54:51;;;;;;;6.75;3.10;;;;;;;44.88;7.88;99289.03;5021554;28;20059;-67
2023/06/09 07:57:18;;;;;;;6.32;2.28;;;;;;;45.84;6.60;99283.34;5037125;28;20049;-68
2023/06/09 07:59:45;;;;;;;3.38;2.58;;;;;;;46.44;6.17;99288.91;5037549;28;20487;-66
2023/06/09 08:02:11;;;;;;;5.20;2.97;;;;;;;47.37;6.33;99289.78;5037196;28;20134;-66
2023/06/09 08:04:39;;;;;;;4.00;2.95;;;;;;;48.04;5.76;99291.34;5070272;28;20040;-65
2023/06/09 08:07:05;;;;;;;5.03;2.40;;;;;;;48.32;5.53;99293.88;5037287;28;20051;-65
2023/06/09 08:09:31;;;;;;;5.68;2.72;;;;;;;47.60;5.59;99289.25;5004011;28;20048;-65
2023/06/09 08:11:57;;;;;;;11.40;2.70;;;;;;;48.64;5.29;99297.22;5052867;28;20048;-65
2023/06/09 08:14:24;;;;;;;6.22;2.30;;;;;;;49.61;4.64;99287.88;5053734;28;20048;-65
2023/06/09 08:16:52;;;;;;;8.50;2.17;;;;;;;50.01;4.33;99293.28;5070069;28;20068;-66
2023/06/09 08:19:18;;;;;;;7.95;2.53;;;;;;;49.20;4.57;99282.41;5036402;28;20059;-64
2023/06/09 08:21:44;;;;;;;5.07;2.35;;;;;;;50.06;4.88;99289.16;5070906;28;20048;-64
2023/06/09 08:24:11;;;;;;;4.03;2.60;;;;;;;49.94;4.30;99279.25;5036850;28;20341;-64
2023/06/09 08:26:37;;;;;;;2.95;2.40;;;;;;;49.48;4.55;99282.00;5036632;28;20056;-64
2023/06/09 08:29:04;;;;;;;7.40;2.42;;;;;;;49.54;4.58;99288.78;5036596;28;20047;-65
2023/06/09 08:31:32;;;;;;;3.67;2.42;;;;;;;49.88;3.76;99286.63;5049759;28;20051;-65
2023/06/09 08:33:58;;;;;;;5.43;2.40;;;;;;;50.55;3.84;99289.06;5070216;28;20071;-66
2023/06/09 08:36:25;;;;;;;4.22;2.45;;;;;;;51.91;3.07;99292.94;5070498;28;20040;-65
2023/06/09 08:38:51;;;;;;;9.55;2.38;;;;;;;52.68;2.66;99292.94;5053228;28;20098;-65
2023/06/09 08:41:22;;;;;;;4.80;2.10;;;;;;;53.96;2.32;99290.59;5069159;28;20092;-65
2023/06/09 08:43:48;;;;;;;6.97;2.33;;;;;;;54.67;1.99;99279.09;5070344;28;20497;-64
2023/06/09 08:46:15;;;;;;;2.85;2.38;;;;;;;53.91;2.40;99274.13;5053109;28;20032;-65
2023/06/09 08:48:49;;;;;;;3.63;2.58;;;;;;;53.87;2.01;99285.56;5070494;28;20110;-65
2023/06/09 08:51:15;;;;;;;5.20;2.40;;;;;;;53.15;2.25;99276.94;5036594;28;20048;-65
2023/06/09 08:53:41;;;;;;;7.78;2.60;;;;;;;53.65;2.02;99283.91;5053175;28;20094;-66
2023/06/09 08:56:08;;;;;;;7.50;2.70;;;;;;;54.56;1.89;99277.94;5036284;28;20491;-66
2023/06/09 08:58:34;;;;;;;4.65;2.25;;;;;;;55.29;1.65;99279.19;5070457;28;20067;-66
2023/06/09 09:01:01;;;;;;;3.95;2.28;;;;;;;54.52;1.99;99282.94;5069471;28;20117;-65
2023/06/09 09:03:27;;;;;;;5.25;2.78;;;;;;;54.28;2.16;99276.91;5070961;28;20049;-65
2023/06/09 09:05:53;;;;;;;6.35;2.33;;;;;;;54.96;2.01;99278.06;5057420;28;20048;-66
2023/06/09 09:08:20;;;;;;;4.40;2.30;;;;;;;56.41;1.56;99280.16;5056804;28;20040;-66
2023/06/09 09:10:46;;;;;;;8.38;2.60;;;;;;;57.36;1.13;99284.31;5074322;28;20527;-65
2023/06/09 09:13:13;;;;;;;2.20;2.00;;;;;;;58.18;0.71;99282.59;5055875;28;20036;-65
2023/06/09 09:15:49;;;;;;;5.47;2.22;;;;;;;58.81;0.60;99278.41;5056866;28;20050;-65
2023/06/09 09:18:17;;;;;;;5.55;2.67;;;;;;;59.20;0.46;99282.75;5056448;28;20048;-72
2023/06/09 09:20:44;;;;;;;4.38;2.50;;;;;;;58.84;0.00;99266.75;4996181;28;20073;-66
2023/06/09 09:23:10;;;;;;;6.20;2.67;;;;;;;58.26;0.22;99269.50;5012442;28;20088;-66
2023/06/09 09:25:37;;;;;;;3.53;2.50;;;;;;;58.30;0.63;99272.19;5012243;28;20049;-67
2023/06/09 09:28:11;;;;;;;3.67;2.20;;;;;;;59.05;0.14;99264.81;4995711;28;20382;-67
2023/06/09 09:30:45;;;;;;;3.20;1.98;;;;;;;59.44;0.05;99271.19;4996028;28;20470;-66
2023/06/09 09:33:15;;;;;;;7.47;2.15;;;;;;;60.04;0.07;99271.28;4979331;28;20049;-66
2023/06/09 09:35:48;;;;;;;3.58;2.20;;;;;;;60.43;0.00;99272.59;5012094;28;20082;-66
2023/06/09 09:38:32;;;;;;;4.65;2.10;;;;;;;61.07;0.00;99264.34;4995646;28;20093;-66
2023/06/09 09:41:00;;;;;;;4.47;1.95;;;;;;;59.83;0.00;99264.75;4995830;28;20065;-66
2023/06/09 09:43:27;;;;;;;2.13;1.90;;;;;;;58.11;0.00;99259.28;4996464;28;20049;-66
2023/06/09 09:45:55;;;;;;;5.35;1.98;;;;;;;57.72;0.81;99247.78;4995238;28;20053;-66
2023/06/09 09:48:23;;;;;;;5.43;2.10;;;;;;;58.21;0.30;99247.28;5011120;28;20548;-66
2023/06/09 09:50:52;;;;;;;2.97;2.13;;;;;;;59.30;0.31;99235.53;5011560;28;20052;-66
2023/06/09 09:53:23;;;;;;;4.15;2.13;;;;;;;60.09;0.00;99253.34;4994528;28;20044;-66
2023/06/09 09:55:51;;;;;;;3.47;2.33;;;;;;;60.55;0.00;99245.56;5011504;28;20204;-66
2023/06/09 09:58:19;;;;;;;3.13;2.40;;;;;;;60.28;0.02;99241.09;5029139;28;20461;-66
2023/06/09 10:00:46;;;;;;;3.67;2.13;;;;;;;59.38;0.27;99235.91;5038774;28;20033;-66
2023/06/09 10:03:19;;;;;;;4.50;2.30;;;;;;;59.38;0.01;99241.66;5039007;28;20041;-66
2023/06/09 10:05:47;;;;;;;5.75;2.17;;;;;;;59.06;0.25;99229.13;5014309;28;20127;-66
2023/06/09 10:08:21;;;;;;;5.33;2.50;;;;;;;58.62;0.03;99232.00;5053184;28;20045;-66
2023/06/09 10:10:48;;;;;;;4.63;2.20;;;;;;;59.05;0.05;99225.47;5035909;28;20525;-66
2023/06/09 10:13:14;;;;;;;3.67;2.20;;;;;;;59.14;0.05;99233.16;5034858;28;20041;-66
2023/06/09 10:15:44;;;;;;;5.78;2.10;;;;;;;58.34;0.29;99224.94;5059350;28;20076;-66
2023/06/09 10:18:11;;;;;;;3.80;2.20;;;;;;;58.28;0.50;99215.44;5038628;28;20052;-65
2023/06/09 10:20:37;;;;;;;5.57;2.10;;;;;;;56.82;0.49;99211.00;5038751;28;20044;-65
2023/06/09 10:23:04;;;;;;;3.08;2.50;;;;;;;54.95;1.31;99206.09;5037507;28;20388;-66
2023/06/09 10:25:30;;;;;;;3.85;2.22;;;;;;;52.13;1.99;99207.38;5001452;28;20057;-66
2023/06/09 10:27:56;;;;;;;3.58;2.42;;;;;;;50.79;3.02;99198.50;5017209;28;20147;-66
2023/06/09 10:30:23;;;;;;;7.80;2.67;;;;;;;50.29;2.81;99193.84;5068334;28;20139;-66
2023/06/09 10:32:55;;;;;;;4.00;2.40;;;;;;;51.11;2.72;99181.59;5019319;28;20045;-65
2023/06/09 10:35:25;;;;;;;6.68;2.97;;;;;;;51.90;2.42;99191.38;5035294;28;20052;-65
2023/06/09 10:37:52;;;;;;;3.55;2.67;;;;;;;53.09;2.25;99184.25;5068418;28;20472;-65
2023/06/09 10:40:24;;;;;;;5.35;3.05;;;;;;;53.75;1.79;99177.66;5051926;28;20059;-67
2023/06/09 10:43:13;;;;;;;6.53;3.58;;;;;;;54.49;1.58;99178.56;5052078;28;20347;-65
2023/06/09 10:45:51;;;;;;;5.93;2.78;;;;;;;53.34;2.32;99178.59;5034695;28;20064;-65
2023/06/09 10:48:41;;;;;;;3.10;2.40;;;;;;;53.52;1.88;99172.34;5068237;28;20582;-66
2023/06/09 10:51:40;;;;;;;3.17;2.40;;;;;;;53.14;2.31;99153.28;5034715;28;20070;-67
2023/06/09 10:54:07;;;;;;;;;;;;;;;51.37;2.93;99147.41;4959150;28;20057;-67
2023/06/09 10:56:43;;;;;;;11.38;3.38;;;;;;;50.60;3.69;99157.66;4974563;28;20381;-66
2023/06/09 10:59:25;;;;;;;6.43;2.85;;;;;;;49.45;3.67;99144.53;4959373;28;20080;-66
2023/06/09 11:04:49;;;;;;;6.57;3.05;;;;;;;46.36;5.34;99129.97;4935737;29;20047;-66
2023/06/09 11:07:19;;;;;;;9.57;2.95;;;;;;;45.75;5.46;99136.91;4905053;29;20051;-66
2023/06/09 11:09:50;;;;;;;3.58;2.50;;;;;;;45.39;6.14;99122.16;4935582;28;20054;-66
2023/06/09 11:12:42;;;;;;;5.97;2.90;;;;;;;45.63;6.34;99120.50;4976888;28;20041;-68
2023/06/09 11:15:12;;;;;;;10.32;3.00;;;;;;;45.38;6.05;99128.91;4977813;28;20045;-65
2023/06/09 11:17:45;;;;;;;5.80;3.20;;;;;;;45.47;6.26;99128.56;4977502;28;20057;-64
2023/06/09 11:20:15;;;;;;;4.75;2.80;;;;;;;44.97;6.07;99124.88;4993807;28;20379;-66
2023/06/09 11:22:41;;;;;;;4.88;2.97;;;;;;;44.76;6.21;99113.63;5010527;28;20073;-65
2023/06/09 11:25:28;;;;;;;9.60;4.78;;;;;;;43.53;6.69;99117.75;4977623;28;20219;-66
2023/06/09 11:27:54;;;;;;;6.13;3.90;;;;;;;42.36;7.80;99115.75;4993916;28;20061;-64
2023/06/09 11:30:22;;;;;;;7.32;3.53;;;;;;;41.61;8.29;99110.28;5010008;28;20160;-65
2023/06/09 11:32:51;;;;;;;9.93;3.80;;;;;;;41.08;8.02;99105.78;4980950;28;20056;-65
2023/06/09 11:35:23;;;;;;;6.90;3.50;;;;;;;40.97;8.00;99103.97;5033735;28;20139;-67
2023/06/09 11:37:51;;;;;;;3.75;3.03;;;;;;;40.77;8.42;99100.44;4993156;28;20053;-64
2023/06/09 11:40:17;;;;;;;4.95;3.20;;;;;;;39.59;8.66;99091.13;4961157;28;20075;-65
2023/06/09 11:42:43;;;;;;;6.45;3.20;;;;;;;39.57;9.19;99104.59;4961529;28;20057;-63